sensor_id;sensor_type;location;lat;lon;timestamp;noise_LAeq;noise_LA_min;noise_LA_max;noise_LA01;noise_LA95
37163;Laerm;23057;48.554;14.454;2023-04-25T00:02:00;51.29;49.15;66.26;;
37163;Laerm;23057;48.554;14.454;2023-04-25T00:04:31;51.96;49.30;56.35;;
37163;Laerm;23057;48.554;14.454;2023-04-25T00:07:04;52.14;49.32;57.04;;
37163;Laerm;23057;48.554;14.454;2023-04-25T00:09:35;51.77;49.21;55.88;;
37163;Laerm;23057;48.554;14.454;2023-04-25T00:12:06;51.84;49.16;56.93;;
37163;Laerm;23057;48.554;14.454;2023-04-25T00:14:37;51.71;49.10;56.55;;
37163;Laerm;23057;48.554;14.454;2023-04-25T00:17:07;51.73;49.27;57.00;;
37163;Laerm;23057;48.554;14.454;2023-04-25T00:19:38;51.72;49.43;55.19;;
37163;Laerm;23057;48.554;14.454;2023-04-25T00:22:09;51.72;49.26;57.23;;
37163;Laerm;23057;48.554;14.454;2023-04-25T00:24:39;51.73;48.96;56.63;;
37163;Laerm;23057;48.554;14.454;2023-04-25T00:27:10;51.82;49.35;56.71;;
37163;Laerm;23057;48.554;14.454;2023-04-25T00:29:41;51.55;49.19;55.99;;
37163;Laerm;23057;48.554;14.454;2023-04-25T00:32:12;51.49;49.27;56.31;;
37163;Laerm;23057;48.554;14.454;2023-04-25T00:34:43;51.50;49.38;56.41;;
37163;Laerm;23057;48.554;14.454;2023-04-25T00:37:13;51.74;49.19;56.30;;
37163;Laerm;23057;48.554;14.454;2023-04-25T00:39:44;52.05;49.29;56.66;;
37163;Laerm;23057;48.554;14.454;2023-04-25T00:42:15;51.93;49.46;56.11;;
37163;Laerm;23057;48.554;14.454;2023-04-25T00:44:46;51.99;49.29;56.31;;
37163;Laerm;23057;48.554;14.454;2023-04-25T00:47:18;51.95;49.27;56.06;;
37163;Laerm;23057;48.554;14.454;2023-04-25T00:49:49;51.61;48.95;55.23;;
37163;Laerm;23057;48.554;14.454;2023-04-25T00:52:20;51.46;49.02;55.53;;
37163;Laerm;23057;48.554;14.454;2023-04-25T00:54:51;51.72;49.16;56.31;;
37163;Laerm;23057;48.554;14.454;2023-04-25T00:57:21;51.92;48.96;56.78;;
37163;Laerm;23057;48.554;14.454;2023-04-25T00:59:53;52.10;49.35;56.76;;
37163;Laerm;23057;48.554;14.454;2023-04-25T01:02:26;52.39;49.38;57.84;;
37163;Laerm;23057;48.554;14.454;2023-04-25T01:04:57;52.29;49.58;57.46;;
37163;Laerm;23057;48.554;14.454;2023-04-25T01:07:28;52.90;49.59;58.26;;
37163;Laerm;23057;48.554;14.454;2023-04-25T01:09:59;52.40;49.33;56.95;;
37163;Laerm;23057;48.554;14.454;2023-04-25T01:12:31;52.58;49.57;56.93;;
37163;Laerm;23057;48.554;14.454;2023-04-25T01:15:03;53.64;49.45;57.68;;
37163;Laerm;23057;48.554;14.454;2023-04-25T01:17:35;53.87;49.55;57.16;;
37163;Laerm;23057;48.554;14.454;2023-04-25T01:20:07;53.64;49.44;56.62;;
37163;Laerm;23057;48.554;14.454;2023-04-25T01:22:40;53.51;49.43;58.23;;
37163;Laerm;23057;48.554;14.454;2023-04-25T01:25:10;52.25;49.20;56.69;;
37163;Laerm;23057;48.554;14.454;2023-04-25T01:27:42;51.93;49.49;55.70;;
37163;Laerm;23057;48.554;14.454;2023-04-25T01:30:13;51.79;49.35;56.02;;
37163;Laerm;23057;48.554;14.454;2023-04-25T01:32:44;52.03;49.25;56.56;;
37163;Laerm;23057;48.554;14.454;2023-04-25T01:35:15;52.12;49.50;56.32;;
37163;Laerm;23057;48.554;14.454;2023-04-25T01:37:46;51.94;49.33;56.81;;
37163;Laerm;23057;48.554;14.454;2023-04-25T01:40:18;52.59;49.18;56.96;;
37163;Laerm;23057;48.554;14.454;2023-04-25T01:42:49;51.73;49.37;57.65;;
37163;Laerm;23057;48.554;14.454;2023-04-25T01:45:21;52.53;49.27;57.33;;
37163;Laerm;23057;48.554;14.454;2023-04-25T01:47:51;52.60;49.34;56.29;;
37163;Laerm;23057;48.554;14.454;2023-04-25T01:50:22;51.56;49.29;56.19;;
37163;Laerm;23057;48.554;14.454;2023-04-25T01:52:54;51.61;49.07;56.37;;
37163;Laerm;23057;48.554;14.454;2023-04-25T01:55:25;51.44;49.25;55.46;;
37163;Laerm;23057;48.554;14.454;2023-04-25T01:57:56;51.44;49.03;56.88;;
37163;Laerm;23057;48.554;14.454;2023-04-25T02:00:26;51.33;49.18;54.87;;
37163;Laerm;23057;48.554;14.454;2023-04-25T02:02:58;51.52;49.08;55.47;;
37163;Laerm;23057;48.554;14.454;2023-04-25T02:05:35;51.67;49.19;55.11;;
37163;Laerm;23057;48.554;14.454;2023-04-25T02:08:09;51.72;49.27;56.44;;
37163;Laerm;23057;48.554;14.454;2023-04-25T02:10:39;51.52;49.43;55.37;;
37163;Laerm;23057;48.554;14.454;2023-04-25T02:13:10;52.20;49.21;56.50;;
37163;Laerm;23057;48.554;14.454;2023-04-25T02:15:41;51.21;49.08;55.53;;
37163;Laerm;23057;48.554;14.454;2023-04-25T02:18:12;51.78;49.11;55.89;;
37163;Laerm;23057;48.554;14.454;2023-04-25T02:20:43;51.34;49.46;55.88;;
37163;Laerm;23057;48.554;14.454;2023-04-25T02:23:14;51.54;49.21;55.62;;
37163;Laerm;23057;48.554;14.454;2023-04-25T02:25:45;51.24;49.16;55.44;;
37163;Laerm;23057;48.554;14.454;2023-04-25T02:28:16;51.24;49.21;55.05;;
37163;Laerm;23057;48.554;14.454;2023-04-25T02:30:47;51.44;49.41;55.06;;
37163;Laerm;23057;48.554;14.454;2023-04-25T02:33:18;51.59;49.12;56.35;;
37163;Laerm;23057;48.554;14.454;2023-04-25T02:35:48;52.55;49.60;56.42;;
37163;Laerm;23057;48.554;14.454;2023-04-25T02:38:19;53.48;49.39;57.22;;
37163;Laerm;23057;48.554;14.454;2023-04-25T02:40:50;53.08;49.43;56.77;;
37163;Laerm;23057;48.554;14.454;2023-04-25T02:43:21;51.79;49.33;56.35;;
37163;Laerm;23057;48.554;14.454;2023-04-25T02:45:52;53.49;49.59;56.79;;
37163;Laerm;23057;48.554;14.454;2023-04-25T02:48:23;52.26;49.57;56.38;;
37163;Laerm;23057;48.554;14.454;2023-04-25T02:50:54;52.56;49.77;56.11;;
37163;Laerm;23057;48.554;14.454;2023-04-25T02:53:25;52.80;49.55;60.16;;
37163;Laerm;23057;48.554;14.454;2023-04-25T02:55:55;52.65;50.08;56.66;;
37163;Laerm;23057;48.554;14.454;2023-04-25T02:58:28;53.91;49.53;57.64;;
37163;Laerm;23057;48.554;14.454;2023-04-25T03:00:59;54.67;50.16;57.15;;
37163;Laerm;23057;48.554;14.454;2023-04-25T03:03:31;54.35;50.48;57.81;;
37163;Laerm;23057;48.554;14.454;2023-04-25T03:06:01;52.94;50.00;56.27;;
37163;Laerm;23057;48.554;14.454;2023-04-25T03:08:32;54.72;50.78;57.63;;
37163;Laerm;23057;48.554;14.454;2023-04-25T03:11:04;54.43;50.14;57.77;;
37163;Laerm;23057;48.554;14.454;2023-04-25T03:13:35;52.69;49.85;56.19;;
37163;Laerm;23057;48.554;14.454;2023-04-25T03:16:06;52.86;50.45;56.34;;
37163;Laerm;23057;48.554;14.454;2023-04-25T03:18:37;53.05;49.83;56.97;;
37163;Laerm;23057;48.554;14.454;2023-04-25T03:21:08;54.91;50.66;57.47;;
37163;Laerm;23057;48.554;14.454;2023-04-25T03:23:38;55.28;51.06;58.00;;
37163;Laerm;23057;48.554;14.454;2023-04-25T03:26:09;55.72;51.56;57.96;;
37163;Laerm;23057;48.554;14.454;2023-04-25T03:28:41;55.70;52.03;57.97;;
37163;Laerm;23057;48.554;14.454;2023-04-25T03:31:12;55.96;52.67;58.43;;
37163;Laerm;23057;48.554;14.454;2023-04-25T03:33:42;55.66;51.48;58.29;;
37163;Laerm;23057;48.554;14.454;2023-04-25T03:36:13;54.51;50.77;57.73;;
37163;Laerm;23057;48.554;14.454;2023-04-25T03:38:44;51.41;49.15;56.18;;
37163;Laerm;23057;48.554;14.454;2023-04-25T03:41:14;51.07;48.90;54.59;;
37163;Laerm;23057;48.554;14.454;2023-04-25T03:43:45;51.02;49.06;55.15;;
37163;Laerm;23057;48.554;14.454;2023-04-25T03:46:16;50.71;49.13;54.88;;
37163;Laerm;23057;48.554;14.454;2023-04-25T03:48:47;50.49;49.08;56.21;;
37163;Laerm;23057;48.554;14.454;2023-04-25T03:51:17;50.53;49.16;60.73;;
37163;Laerm;23057;48.554;14.454;2023-04-25T03:53:49;50.52;49.00;54.88;;
37163;Laerm;23057;48.554;14.454;2023-04-25T03:56:20;50.45;48.87;55.18;;
37163;Laerm;23057;48.554;14.454;2023-04-25T03:58:51;50.43;49.12;54.41;;
37163;Laerm;23057;48.554;14.454;2023-04-25T04:01:22;50.32;49.07;54.16;;
37163;Laerm;23057;48.554;14.454;2023-04-25T04:03:53;50.31;48.98;53.43;;
37163;Laerm;23057;48.554;14.454;2023-04-25T04:06:23;50.65;49.07;66.56;;
37163;Laerm;23057;48.554;14.454;2023-04-25T04:08:54;50.60;48.84;54.30;;
37163;Laerm;23057;48.554;14.454;2023-04-25T04:11:25;50.31;48.78;53.45;;
37163;Laerm;23057;48.554;14.454;2023-04-25T04:13:56;50.63;49.03;60.01;;
37163;Laerm;23057;48.554;14.454;2023-04-25T04:16:27;51.29;49.21;55.52;;
37163;Laerm;23057;48.554;14.454;2023-04-25T04:18:58;50.99;48.96;58.07;;
37163;Laerm;23057;48.554;14.454;2023-04-25T04:21:29;51.33;49.00;61.99;;
37163;Laerm;23057;48.554;14.454;2023-04-25T04:24:00;50.75;49.18;58.87;;
37163;Laerm;23057;48.554;14.454;2023-04-25T04:26:32;54.97;49.03;72.88;;
37163;Laerm;23057;48.554;14.454;2023-04-25T04:29:03;53.69;49.33;69.59;;
37163;Laerm;23057;48.554;14.454;2023-04-25T04:31:34;53.03;49.08;64.29;;
37163;Laerm;23057;48.554;14.454;2023-04-25T04:34:04;50.44;48.92;64.04;;
37163;Laerm;23057;48.554;14.454;2023-04-25T04:36:35;50.15;49.00;61.20;;
37163;Laerm;23057;48.554;14.454;2023-04-25T04:39:06;50.22;49.21;52.77;;
37163;Laerm;23057;48.554;14.454;2023-04-25T04:41:37;50.32;49.30;60.65;;
37163;Laerm;23057;48.554;14.454;2023-04-25T04:44:07;50.32;48.95;59.11;;
37163;Laerm;23057;48.554;14.454;2023-04-25T04:46:39;50.30;49.18;51.66;;
37163;Laerm;23057;48.554;14.454;2023-04-25T04:49:11;50.28;48.66;52.89;;
37163;Laerm;23057;48.554;14.454;2023-04-25T04:51:44;50.07;48.91;56.07;;
37163;Laerm;23057;48.554;14.454;2023-04-25T04:54:17;50.08;48.91;51.66;;
37163;Laerm;23057;48.554;14.454;2023-04-25T04:56:48;50.52;48.98;56.22;;
37163;Laerm;23057;48.554;14.454;2023-04-25T04:59:19;58.53;49.12;77.09;;
37163;Laerm;23057;48.554;14.454;2023-04-25T05:01:50;51.37;49.20;61.36;;
37163;Laerm;23057;48.554;14.454;2023-04-25T05:04:20;53.06;49.38;70.00;;
37163;Laerm;23057;48.554;14.454;2023-04-25T05:06:51;54.36;49.18;74.03;;
37163;Laerm;23057;48.554;14.454;2023-04-25T05:09:22;55.56;49.32;72.07;;
37163;Laerm;23057;48.554;14.454;2023-04-25T05:11:56;55.16;49.47;78.85;;
37163;Laerm;23057;48.554;14.454;2023-04-25T05:14:26;59.62;49.10;79.49;;
37163;Laerm;23057;48.554;14.454;2023-04-25T05:16:57;50.49;48.69;65.57;;
37163;Laerm;23057;48.554;14.454;2023-04-25T05:19:28;50.73;48.92;62.74;;
37163;Laerm;23057;48.554;14.454;2023-04-25T05:21:59;50.29;48.76;57.43;;
37163;Laerm;23057;48.554;14.454;2023-04-25T05:24:30;50.16;48.73;54.82;;
37163;Laerm;23057;48.554;14.454;2023-04-25T05:27:01;50.16;48.91;54.82;;
37163;Laerm;23057;48.554;14.454;2023-04-25T05:29:32;70.76;49.02;80.66;;
37163;Laerm;23057;48.554;14.454;2023-04-25T05:32:05;72.19;49.92;82.39;;
37163;Laerm;23057;48.554;14.454;2023-04-25T05:34:35;57.07;49.80;78.55;;
37163;Laerm;23057;48.554;14.454;2023-04-25T05:37:07;59.15;49.21;78.38;;
37163;Laerm;23057;48.554;14.454;2023-04-25T05:39:38;63.33;49.85;78.96;;
37163;Laerm;23057;48.554;14.454;2023-04-25T05:42:08;65.37;49.90;80.06;;
37163;Laerm;23057;48.554;14.454;2023-04-25T05:44:39;63.57;49.73;79.34;;
37163;Laerm;23057;48.554;14.454;2023-04-25T05:47:10;61.58;49.59;78.65;;
37163;Laerm;23057;48.554;14.454;2023-04-25T05:49:41;59.66;49.57;78.65;;
37163;Laerm;23057;48.554;14.454;2023-04-25T05:52:11;59.58;49.27;77.43;;
37163;Laerm;23057;48.554;14.454;2023-04-25T05:54:42;57.63;49.16;77.49;;
37163;Laerm;23057;48.554;14.454;2023-04-25T05:57:31;63.61;49.45;84.42;;
37163;Laerm;23057;48.554;14.454;2023-04-25T06:00:02;74.98;52.52;82.41;;
37163;Laerm;23057;48.554;14.454;2023-04-25T06:02:35;71.59;49.47;85.42;;
37163;Laerm;23057;48.554;14.454;2023-04-25T06:05:06;59.51;49.98;75.82;;
37163;Laerm;23057;48.554;14.454;2023-04-25T06:07:37;56.13;50.58;71.96;;
37163;Laerm;23057;48.554;14.454;2023-04-25T06:10:08;53.84;50.33;66.52;;
37163;Laerm;23057;48.554;14.454;2023-04-25T06:12:39;54.45;49.27;80.31;;
37163;Laerm;23057;48.554;14.454;2023-04-25T06:15:10;67.31;49.36;87.81;;
37163;Laerm;23057;48.554;14.454;2023-04-25T06:17:41;78.99;49.80;91.83;;
37163;Laerm;23057;48.554;14.454;2023-04-25T06:20:11;76.17;50.07;91.34;;
37163;Laerm;23057;48.554;14.454;2023-04-25T06:22:42;68.10;49.63;84.57;;
37163;Laerm;23057;48.554;14.454;2023-04-25T06:25:13;52.07;49.57;67.83;;
37163;Laerm;23057;48.554;14.454;2023-04-25T06:27:44;51.66;49.08;65.51;;
37163;Laerm;23057;48.554;14.454;2023-04-25T06:30:14;50.06;48.83;54.27;;
37163;Laerm;23057;48.554;14.454;2023-04-25T06:32:46;49.96;48.84;51.44;;
37163;Laerm;23057;48.554;14.454;2023-04-25T06:35:18;50.00;48.88;51.59;;
37163;Laerm;23057;48.554;14.454;2023-04-25T06:37:49;49.93;48.66;51.72;;
37163;Laerm;23057;48.554;14.454;2023-04-25T06:40:20;49.90;48.84;51.05;;
37163;Laerm;23057;48.554;14.454;2023-04-25T06:42:51;49.87;48.70;53.17;;
37163;Laerm;23057;48.554;14.454;2023-04-25T06:45:21;49.84;48.74;53.66;;
37163;Laerm;23057;48.554;14.454;2023-04-25T06:47:52;49.81;48.64;55.07;;
37163;Laerm;23057;48.554;14.454;2023-04-25T06:50:23;49.81;48.71;56.06;;
37163;Laerm;23057;48.554;14.454;2023-04-25T06:52:54;53.66;48.98;59.43;;
37163;Laerm;23057;48.554;14.454;2023-04-25T06:55:24;57.67;49.14;63.32;;
37163;Laerm;23057;48.554;14.454;2023-04-25T06:57:55;62.53;49.12;67.17;;
37163;Laerm;23057;48.554;14.454;2023-04-25T07:00:26;64.77;49.73;68.18;;
37163;Laerm;23057;48.554;14.454;2023-04-25T07:02:57;62.48;54.82;67.42;;
37163;Laerm;23057;48.554;14.454;2023-04-25T07:05:28;61.87;55.59;65.46;;
37163;Laerm;23057;48.554;14.454;2023-04-25T07:07:58;64.06;53.39;68.69;;
37163;Laerm;23057;48.554;14.454;2023-04-25T07:10:29;57.68;49.25;68.37;;
37163;Laerm;23057;48.554;14.454;2023-04-25T07:13:00;50.36;49.12;52.96;;
37163;Laerm;23057;48.554;14.454;2023-04-25T07:15:31;50.73;49.21;52.42;;
37163;Laerm;23057;48.554;14.454;2023-04-25T07:18:01;50.40;49.29;58.51;;
37163;Laerm;23057;48.554;14.454;2023-04-25T07:20:32;50.61;49.35;56.67;;
37163;Laerm;23057;48.554;14.454;2023-04-25T07:23:03;51.71;49.56;60.60;;
37163;Laerm;23057;48.554;14.454;2023-04-25T07:25:34;51.12;49.08;63.49;;
37163;Laerm;23057;48.554;14.454;2023-04-25T07:28:05;52.20;49.89;65.85;;
37163;Laerm;23057;48.554;14.454;2023-04-25T07:30:36;52.93;50.31;64.91;;
37163;Laerm;23057;48.554;14.454;2023-04-25T07:33:07;51.28;49.24;67.83;;
37163;Laerm;23057;48.554;14.454;2023-04-25T07:35:37;51.92;49.57;67.16;;
37163;Laerm;23057;48.554;14.454;2023-04-25T07:38:08;52.47;50.38;66.61;;
37163;Laerm;23057;48.554;14.454;2023-04-25T07:40:40;69.42;48.94;87.95;;
37163;Laerm;23057;48.554;14.454;2023-04-25T07:43:11;79.24;49.14;88.49;;
37163;Laerm;23057;48.554;14.454;2023-04-25T07:45:46;79.28;51.81;88.49;;
37163;Laerm;23057;48.554;14.454;2023-04-25T07:48:18;65.62;58.51;84.54;;
37163;Laerm;23057;48.554;14.454;2023-04-25T07:50:51;65.82;52.48;69.19;;
37163;Laerm;23057;48.554;14.454;2023-04-25T07:53:22;65.31;52.73;69.76;;
37163;Laerm;23057;48.554;14.454;2023-04-25T07:55:53;67.07;56.39;78.31;;
37163;Laerm;23057;48.554;14.454;2023-04-25T07:58:24;65.49;51.91;82.78;;
37163;Laerm;23057;48.554;14.454;2023-04-25T08:00:55;66.60;50.77;83.41;;
37163;Laerm;23057;48.554;14.454;2023-04-25T08:03:25;67.55;49.66;81.06;;
37163;Laerm;23057;48.554;14.454;2023-04-25T08:05:56;66.57;49.71;79.44;;
37163;Laerm;23057;48.554;14.454;2023-04-25T08:08:27;66.19;49.60;80.20;;
37163;Laerm;23057;48.554;14.454;2023-04-25T08:10:57;66.30;49.46;79.52;;
37163;Laerm;23057;48.554;14.454;2023-04-25T08:13:28;66.64;49.58;79.10;;
37163;Laerm;23057;48.554;14.454;2023-04-25T08:15:59;67.69;49.40;79.87;;
37163;Laerm;23057;48.554;14.454;2023-04-25T08:18:30;69.62;49.50;80.48;;
37163;Laerm;23057;48.554;14.454;2023-04-25T08:21:01;69.92;49.18;80.75;;
37163;Laerm;23057;48.554;14.454;2023-04-25T08:23:32;63.01;49.30;81.55;;
37163;Laerm;23057;48.554;14.454;2023-04-25T08:26:03;50.74;49.02;53.25;;
37163;Laerm;23057;48.554;14.454;2023-04-25T08:28:35;50.60;49.19;53.13;;
37163;Laerm;23057;48.554;14.454;2023-04-25T08:31:05;51.64;49.15;81.41;;
37163;Laerm;23057;48.554;14.454;2023-04-25T08:33:37;66.53;49.04;82.84;;
37163;Laerm;23057;48.554;14.454;2023-04-25T08:36:08;67.11;49.14;84.34;;
37163;Laerm;23057;48.554;14.454;2023-04-25T08:38:38;64.44;49.23;83.10;;
37163;Laerm;23057;48.554;14.454;2023-04-25T08:41:11;75.55;49.30;87.80;;
37163;Laerm;23057;48.554;14.454;2023-04-25T08:43:43;66.75;49.14;86.12;;
37163;Laerm;23057;48.554;14.454;2023-04-25T08:46:18;50.71;49.18;55.97;;
37163;Laerm;23057;48.554;14.454;2023-04-25T08:48:49;50.66;49.18;54.86;;
37163;Laerm;23057;48.554;14.454;2023-04-25T08:51:22;50.85;49.24;56.97;;
37163;Laerm;23057;48.554;14.454;2023-04-25T08:53:59;62.39;49.38;83.42;;
37163;Laerm;23057;48.554;14.454;2023-04-25T08:56:41;60.67;50.00;64.29;;
37163;Laerm;23057;48.554;14.454;2023-04-25T08:59:14;61.76;53.55;65.47;;
37163;Laerm;23057;48.554;14.454;2023-04-25T09:01:45;56.14;50.03;63.54;;
37163;Laerm;23057;48.554;14.454;2023-04-25T09:04:15;51.44;49.96;53.18;;
37163;Laerm;23057;48.554;14.454;2023-04-25T09:06:48;51.33;49.79;53.28;;
37163;Laerm;23057;48.554;14.454;2023-04-25T09:09:19;51.48;49.97;54.45;;
37163;Laerm;23057;48.554;14.454;2023-04-25T09:11:49;51.37;49.88;54.01;;
37163;Laerm;23057;48.554;14.454;2023-04-25T09:14:22;51.47;49.94;53.64;;
37163;Laerm;23057;48.554;14.454;2023-04-25T09:19:30;54.19;49.77;66.06;;
37163;Laerm;23057;48.554;14.454;2023-04-25T09:22:04;51.39;49.25;73.98;;
37163;Laerm;23057;48.554;14.454;2023-04-25T09:24:43;58.23;49.07;77.22;;
37163;Laerm;23057;48.554;14.454;2023-04-25T09:27:21;54.69;49.40;77.25;;
37163;Laerm;23057;48.554;14.454;2023-04-25T09:29:58;52.05;49.11;69.63;;
37163;Laerm;23057;48.554;14.454;2023-04-25T09:32:31;54.27;48.84;73.66;;
37163;Laerm;23057;48.554;14.454;2023-04-25T09:35:03;64.25;49.62;76.40;;
37163;Laerm;23057;48.554;14.454;2023-04-25T09:37:35;58.36;49.64;79.37;;
37163;Laerm;23057;48.554;14.454;2023-04-25T09:40:07;59.98;49.33;83.52;;
37163;Laerm;23057;48.554;14.454;2023-04-25T09:42:41;63.86;49.23;87.82;;
37163;Laerm;23057;48.554;14.454;2023-04-25T09:45:13;51.73;49.14;67.17;;
37163;Laerm;23057;48.554;14.454;2023-04-25T09:47:46;50.42;48.95;66.39;;
37163;Laerm;23057;48.554;14.454;2023-04-25T09:50:17;59.68;48.91;81.25;;
37163;Laerm;23057;48.554;14.454;2023-04-25T09:53:05;69.61;49.04;88.62;;
37163;Laerm;23057;48.554;14.454;2023-04-25T09:55:38;55.28;49.43;75.87;;
37163;Laerm;23057;48.554;14.454;2023-04-25T09:58:11;58.97;49.67;79.50;;
37163;Laerm;23057;48.554;14.454;2023-04-25T10:00:42;59.94;49.40;78.25;;
37163;Laerm;23057;48.554;14.454;2023-04-25T10:03:15;60.74;49.02;78.95;;
37163;Laerm;23057;48.554;14.454;2023-04-25T10:05:48;62.37;49.32;80.68;;
37163;Laerm;23057;48.554;14.454;2023-04-25T10:08:20;62.13;49.33;79.13;;
37163;Laerm;23057;48.554;14.454;2023-04-25T10:10:51;60.64;49.18;78.95;;
37163;Laerm;23057;48.554;14.454;2023-04-25T10:13:23;62.67;49.43;79.89;;
37163;Laerm;23057;48.554;14.454;2023-04-25T10:15:55;61.71;49.35;80.00;;
37163;Laerm;23057;48.554;14.454;2023-04-25T10:18:29;61.18;49.43;79.98;;
37163;Laerm;23057;48.554;14.454;2023-04-25T10:21:03;56.48;49.69;77.06;;
37163;Laerm;23057;48.554;14.454;2023-04-25T10:23:36;56.29;51.05;72.53;;
37163;Laerm;23057;48.554;14.454;2023-04-25T10:26:08;56.54;50.75;72.24;;
37163;Laerm;23057;48.554;14.454;2023-04-25T10:29:00;58.18;51.70;73.83;;
37163;Laerm;23057;48.554;14.454;2023-04-25T10:31:32;66.75;51.26;83.37;;
37163;Laerm;23057;48.554;14.454;2023-04-25T10:34:02;59.88;50.61;77.63;;
37163;Laerm;23057;48.554;14.454;2023-04-25T10:36:33;72.61;50.05;82.95;;
37163;Laerm;23057;48.554;14.454;2023-04-25T10:39:06;68.09;49.03;89.59;;
37163;Laerm;23057;48.554;14.454;2023-04-25T10:41:56;61.94;50.89;81.03;;
37163;Laerm;23057;48.554;14.454;2023-04-25T10:44:29;64.46;53.65;81.21;;
37163;Laerm;23057;48.554;14.454;2023-04-25T10:47:01;65.62;49.45;86.37;;
37163;Laerm;23057;48.554;14.454;2023-04-25T10:49:41;71.23;49.88;93.29;;
37163;Laerm;23057;48.554;14.454;2023-04-25T10:52:25;56.63;51.79;78.33;;
37163;Laerm;23057;48.554;14.454;2023-04-25T10:54:57;58.35;52.72;80.04;;
37163;Laerm;23057;48.554;14.454;2023-04-25T11:00:17;59.38;55.14;75.41;;
37163;Laerm;23057;48.554;14.454;2023-04-25T11:02:53;62.44;52.33;79.24;;
37163;Laerm;23057;48.554;14.454;2023-04-25T11:08:01;60.77;51.14;81.70;;
37163;Laerm;23057;48.554;14.454;2023-04-25T11:10:34;59.13;50.23;80.23;;
37163;Laerm;23057;48.554;14.454;2023-04-25T11:13:07;60.22;51.10;87.45;;
37163;Laerm;23057;48.554;14.454;2023-04-25T11:15:38;60.18;49.94;87.67;;
37163;Laerm;23057;48.554;14.454;2023-04-25T11:18:09;59.66;50.03;87.51;;
37163;Laerm;23057;48.554;14.454;2023-04-25T11:20:43;61.52;49.70;84.42;;
37163;Laerm;23057;48.554;14.454;2023-04-25T11:23:15;67.31;48.80;92.02;;
37163;Laerm;23057;48.554;14.454;2023-04-25T11:25:46;64.26;49.20;76.69;;
37163;Laerm;23057;48.554;14.454;2023-04-25T11:28:21;70.85;49.02;96.14;;
37163;Laerm;23057;48.554;14.454;2023-04-25T11:30:53;62.03;49.14;88.76;;
37163;Laerm;23057;48.554;14.454;2023-04-25T11:33:24;65.65;50.30;84.11;;
37163;Laerm;23057;48.554;14.454;2023-04-25T11:35:56;58.43;49.70;77.49;;
37163;Laerm;23057;48.554;14.454;2023-04-25T11:38:27;50.71;49.04;53.25;;
37163;Laerm;23057;48.554;14.454;2023-04-25T11:40:58;50.29;49.16;51.56;;
37163;Laerm;23057;48.554;14.454;2023-04-25T11:43:28;50.34;49.11;52.00;;
37163;Laerm;23057;48.554;14.454;2023-04-25T11:45:59;50.38;49.06;51.66;;
37163;Laerm;23057;48.554;14.454;2023-04-25T11:48:38;50.40;49.30;51.84;;
37163;Laerm;23057;48.554;14.454;2023-04-25T11:51:09;50.52;49.20;53.51;;
37163;Laerm;23057;48.554;14.454;2023-04-25T11:53:44;50.44;48.77;56.55;;
37163;Laerm;23057;48.554;14.454;2023-04-25T11:56:15;51.05;48.96;74.01;;
37163;Laerm;23057;48.554;14.454;2023-04-25T11:59:01;53.57;48.91;72.01;;
37163;Laerm;23057;48.554;14.454;2023-04-25T12:01:35;55.18;48.90;72.02;;
37163;Laerm;23057;48.554;14.454;2023-04-25T12:04:24;59.61;50.13;84.05;;
37163;Laerm;23057;48.554;14.454;2023-04-25T12:06:55;56.99;49.57;80.07;;
37163;Laerm;23057;48.554;14.454;2023-04-25T12:09:33;54.18;49.45;75.21;;
37163;Laerm;23057;48.554;14.454;2023-04-25T12:12:04;58.79;49.23;75.54;;
37163;Laerm;23057;48.554;14.454;2023-04-25T12:14:36;54.19;49.04;75.83;;
37163;Laerm;23057;48.554;14.454;2023-04-25T12:17:06;54.86;49.30;73.23;;
37163;Laerm;23057;48.554;14.454;2023-04-25T12:19:38;51.69;48.83;58.97;;
37163;Laerm;23057;48.554;14.454;2023-04-25T12:22:24;51.77;49.23;70.69;;
37163;Laerm;23057;48.554;14.454;2023-04-25T12:24:55;55.44;49.11;68.35;;
37163;Laerm;23057;48.554;14.454;2023-04-25T12:27:31;56.31;49.05;83.66;;
37163;Laerm;23057;48.554;14.454;2023-04-25T12:30:02;57.00;49.14;73.65;;
37163;Laerm;23057;48.554;14.454;2023-04-25T12:32:34;56.16;49.43;72.72;;
37163;Laerm;23057;48.554;14.454;2023-04-25T12:35:06;56.16;49.30;72.92;;
37163;Laerm;23057;48.554;14.454;2023-04-25T12:37:37;56.11;49.14;73.16;;
37163;Laerm;23057;48.554;14.454;2023-04-25T12:40:08;55.94;49.11;71.23;;
37163;Laerm;23057;48.554;14.454;2023-04-25T12:42:39;55.95;49.07;73.71;;
37163;Laerm;23057;48.554;14.454;2023-04-25T12:45:09;55.94;48.95;74.37;;
37163;Laerm;23057;48.554;14.454;2023-04-25T12:47:40;56.45;49.21;85.61;;
37163;Laerm;23057;48.554;14.454;2023-04-25T12:50:11;55.17;48.71;72.38;;
37163;Laerm;23057;48.554;14.454;2023-04-25T12:52:42;57.87;49.14;68.94;;
37163;Laerm;23057;48.554;14.454;2023-04-25T12:55:12;59.30;49.08;70.61;;
37163;Laerm;23057;48.554;14.454;2023-04-25T12:57:43;58.89;48.78;71.61;;
37163;Laerm;23057;48.554;14.454;2023-04-25T13:00:14;60.13;49.16;74.30;;
37163;Laerm;23057;48.554;14.454;2023-04-25T13:02:45;61.01;49.39;70.66;;
37163;Laerm;23057;48.554;14.454;2023-04-25T13:05:20;63.03;49.32;73.04;;
37163;Laerm;23057;48.554;14.454;2023-04-25T13:07:50;63.36;50.60;69.60;;
37163;Laerm;23057;48.554;14.454;2023-04-25T13:10:22;51.64;50.32;53.89;;
37163;Laerm;23057;48.554;14.454;2023-04-25T13:12:52;51.75;50.32;53.63;;
37163;Laerm;23057;48.554;14.454;2023-04-25T13:15:23;51.63;50.20;61.31;;
37163;Laerm;23057;48.554;14.454;2023-04-25T13:17:54;51.55;50.26;54.20;;
37163;Laerm;23057;48.554;14.454;2023-04-25T13:20:26;51.44;50.10;54.65;;
37163;Laerm;23057;48.554;14.454;2023-04-25T13:22:57;51.43;50.16;53.42;;
37163;Laerm;23057;48.554;14.454;2023-04-25T13:25:27;51.76;50.33;55.11;;
37163;Laerm;23057;48.554;14.454;2023-04-25T13:27:58;51.71;50.43;56.03;;
37163;Laerm;23057;48.554;14.454;2023-04-25T13:30:29;51.88;50.40;55.69;;
37163;Laerm;23057;48.554;14.454;2023-04-25T13:33:00;52.23;50.11;64.26;;
37163;Laerm;23057;48.554;14.454;2023-04-25T13:35:35;51.12;49.52;63.31;;
37163;Laerm;23057;48.554;14.454;2023-04-25T13:38:06;52.34;49.73;68.63;;
37163;Laerm;23057;48.554;14.454;2023-04-25T13:40:37;51.96;50.22;57.79;;
37163;Laerm;23057;48.554;14.454;2023-04-25T13:43:07;53.61;50.77;59.37;;
37163;Laerm;23057;48.554;14.454;2023-04-25T13:45:39;53.62;50.63;59.90;;
37163;Laerm;23057;48.554;14.454;2023-04-25T13:48:10;52.54;50.46;59.74;;
37163;Laerm;23057;48.554;14.454;2023-04-25T13:50:40;52.24;50.07;59.83;;
37163;Laerm;23057;48.554;14.454;2023-04-25T13:53:11;51.89;50.21;58.01;;
37163;Laerm;23057;48.554;14.454;2023-04-25T13:55:42;51.52;49.66;58.07;;
37163;Laerm;23057;48.554;14.454;2023-04-25T13:58:13;51.46;49.69;58.45;;
37163;Laerm;23057;48.554;14.454;2023-04-25T14:00:43;51.52;49.20;63.48;;
37163;Laerm;23057;48.554;14.454;2023-04-25T14:03:16;58.62;49.24;83.63;;
37163;Laerm;23057;48.554;14.454;2023-04-25T14:05:47;56.23;48.90;72.82;;